createdAt,value
2022-08-23T00:00:45.189Z,2.81
2022-08-23T00:01:51.369Z,2.82
2022-08-23T00:02:55.527Z,3.47
2022-08-23T00:04:01.353Z,2.71
2022-08-23T00:05:08.916Z,2.61
2022-08-23T00:06:10.529Z,3.09
2022-08-23T00:07:15.423Z,2.86
2022-08-23T00:08:18.158Z,2.39
2022-08-23T00:09:22.129Z,3.59
2022-08-23T00:10:24.778Z,2.95
2022-08-23T00:11:33.382Z,2.85
2022-08-23T00:12:35.793Z,2.48
2022-08-23T00:13:47.765Z,3.01
2022-08-23T00:14:46.556Z,2.87
2022-08-23T00:15:49.086Z,2.26
2022-08-23T00:16:51.765Z,2.49
2022-08-23T00:17:55.176Z,2.89
2022-08-23T00:18:57.775Z,2.58
2022-08-23T00:19:59.927Z,2.59
2022-08-23T00:21:02.883Z,2.98
2022-08-23T00:22:06.161Z,2.44
2022-08-23T00:23:08.425Z,2.21
2022-08-23T00:24:12.727Z,3.63
2022-08-23T00:25:15.098Z,2.94
2022-08-23T00:26:17.831Z,2.29
2022-08-23T00:27:20.522Z,2.99
2022-08-23T00:28:22.899Z,2.39
2022-08-23T00:29:28.622Z,2.53
2022-08-23T00:30:32.119Z,2.47
2022-08-23T00:31:36.273Z,2.48
2022-08-23T00:32:41.051Z,2.98
2022-08-23T00:33:43.829Z,2.73
2022-08-23T00:34:46.530Z,2.54
2022-08-23T00:35:48.961Z,1.85
2022-08-23T00:36:51.593Z,1.87
2022-08-23T00:38:06.000Z,2.27
2022-08-23T00:39:00.982Z,3.09
2022-08-23T00:40:06.870Z,2.53
2022-08-23T00:41:09.238Z,2.36
2022-08-23T00:42:14.892Z,2.43
2022-08-23T00:43:26.564Z,2.41
2022-08-23T00:44:32.426Z,2.79
2022-08-23T00:45:50.361Z,2.39
2022-08-23T00:46:55.494Z,2.78
2022-08-23T00:47:58.203Z,2.73
2022-08-23T00:49:03.344Z,2.32
2022-08-23T00:50:28.646Z,2.23
2022-08-23T00:51:41.333Z,2.72
2022-08-23T00:52:42.613Z,2.39
2022-08-23T00:53:48.357Z,2.84
2022-08-23T00:54:53.228Z,2.66
2022-08-23T00:56:01.898Z,2.20
2022-08-23T00:57:07.707Z,2.44
2022-08-23T00:58:12.142Z,2.12
2022-08-23T00:59:14.513Z,2.62
2022-08-23T01:00:18.673Z,2.42
2022-08-23T01:01:21.193Z,1.98
2022-08-23T01:02:25.080Z,2.06
2022-08-23T01:03:30.150Z,2.29
2022-08-23T01:04:40.963Z,2.32
2022-08-23T01:05:46.818Z,2.96
2022-08-23T01:06:55.857Z,2.44
2022-08-23T01:07:59.537Z,2.12
2022-08-23T01:09:05.570Z,2.23
2022-08-23T01:10:14.971Z,1.76
2022-08-23T01:11:25.960Z,2.30
2022-08-23T01:12:33.089Z,1.98
2022-08-23T01:13:42.144Z,2.11
2022-08-23T01:14:55.408Z,1.88
2022-08-23T01:16:06.800Z,2.46
2022-08-23T01:18:16.279Z,2.66
2022-08-23T01:19:25.115Z,2.57
2022-08-23T01:20:31.130Z,2.20
2022-08-23T01:21:43.488Z,2.55
2022-08-23T01:23:01.675Z,2.51
2022-08-23T01:24:05.392Z,2.19
2022-08-23T01:26:23.404Z,2.44
2022-08-23T01:27:25.972Z,2.42
2022-08-23T01:28:28.130Z,2.29
2022-08-23T01:29:30.624Z,2.15
2022-08-23T01:30:34.543Z,2.25
2022-08-23T01:31:37.145Z,2.09
2022-08-23T01:32:46.391Z,2.05
2022-08-23T01:33:52.455Z,1.96
2022-08-23T01:34:54.736Z,2.24
2022-08-23T01:35:58.679Z,2.66
2022-08-23T01:37:05.183Z,1.84
2022-08-23T01:38:09.116Z,2.56
2022-08-23T01:39:11.705Z,2.14
2022-08-23T01:40:14.862Z,2.21
2022-08-23T01:41:17.628Z,2.81
2022-08-23T01:42:20.215Z,2.04
2022-08-23T01:43:22.725Z,2.01
2022-08-23T01:44:27.339Z,2.63
2022-08-23T01:45:30.187Z,2.47
2022-08-23T01:46:32.908Z,2.11
2022-08-23T01:47:35.372Z,2.46
2022-08-23T01:48:38.325Z,2.38
2022-08-23T01:49:40.878Z,2.52
2022-08-23T01:50:43.651Z,2.59
2022-08-23T01:51:46.046Z,3.00
2022-08-23T01:52:48.589Z,2.54
2022-08-23T01:53:51.205Z,2.01
2022-08-23T01:54:53.369Z,2.79
2022-08-23T01:55:56.004Z,2.41
2022-08-23T01:56:58.476Z,2.51
2022-08-23T01:58:03.109Z,2.27
2022-08-23T01:59:08.169Z,2.53
2022-08-23T02:00:11.602Z,2.44
2022-08-23T02:01:17.295Z,2.51
2022-08-23T02:02:20.379Z,2.64
2022-08-23T02:03:22.786Z,2.05
2022-08-23T02:04:25.103Z,2.43
2022-08-23T02:05:28.949Z,2.31
2022-08-23T02:06:31.555Z,2.65
2022-08-23T02:07:33.973Z,2.98
2022-08-23T02:08:37.258Z,2.39
2022-08-23T02:09:39.759Z,2.34
2022-08-23T02:10:42.623Z,2.58
2022-08-23T02:11:46.719Z,2.28
2022-08-23T02:12:49.135Z,2.45
2022-08-23T02:13:54.086Z,2.13
2022-08-23T02:14:56.282Z,2.58
2022-08-23T02:15:58.761Z,2.49
2022-08-23T02:17:04.245Z,2.06
2022-08-23T02:18:05.797Z,2.01
2022-08-23T02:19:11.586Z,2.55
2022-08-23T02:20:15.215Z,2.86
2022-08-23T02:21:17.649Z,2.55
2022-08-23T02:22:20.092Z,2.03
2022-08-23T02:23:22.651Z,2.53
2022-08-23T02:24:25.710Z,2.76
2022-08-23T02:25:28.279Z,2.87
2022-08-23T02:26:30.981Z,2.36
2022-08-23T02:27:33.626Z,3.45
2022-08-23T02:28:36.413Z,2.99
2022-08-23T02:29:39.476Z,2.96
2022-08-23T02:30:44.664Z,2.33
2022-08-23T02:31:48.358Z,2.52
2022-08-23T02:32:52.642Z,2.98
2022-08-23T02:33:56.077Z,3.41
2022-08-23T02:35:05.032Z,3.08
2022-08-23T02:36:03.709Z,2.71
2022-08-23T02:37:07.988Z,2.79
2022-08-23T02:38:11.517Z,2.66
2022-08-23T02:39:15.482Z,3.00
2022-08-23T02:40:19.144Z,3.02
2022-08-23T02:41:22.580Z,2.89
2022-08-23T02:42:24.777Z,2.47
2022-08-23T02:43:27.219Z,3.29
2022-08-23T02:44:29.597Z,2.85
2022-08-23T02:45:33.456Z,2.85
2022-08-23T02:46:36.540Z,2.85
2022-08-23T02:47:39.034Z,2.51
2022-08-23T02:48:41.282Z,2.45
2022-08-23T02:49:43.631Z,2.57
2022-08-23T02:50:46.028Z,2.81
2022-08-23T02:51:48.237Z,2.91
2022-08-23T02:52:50.532Z,2.70
2022-08-23T02:53:52.960Z,2.97
2022-08-23T02:54:58.037Z,2.91
2022-08-23T02:55:59.680Z,2.13
2022-08-23T02:57:02.147Z,2.89
2022-08-23T02:58:04.296Z,2.51
2022-08-23T02:59:07.461Z,2.79
2022-08-23T03:00:11.887Z,2.64
2022-08-23T03:01:23.661Z,2.88
2022-08-23T03:02:26.089Z,2.87
2022-08-23T03:03:28.912Z,2.89
2022-08-23T03:04:31.172Z,4.24
2022-08-23T03:05:33.915Z,2.66
2022-08-23T03:06:37.251Z,2.73
2022-08-23T03:07:39.611Z,3.14
2022-08-23T03:08:42.355Z,2.74
2022-08-23T03:09:44.520Z,2.75
2022-08-23T03:10:49.095Z,2.87
2022-08-23T03:11:51.431Z,2.71
2022-08-23T03:12:53.799Z,3.63
2022-08-23T03:13:56.759Z,2.74
2022-08-23T03:14:59.695Z,2.60
2022-08-23T03:16:02.449Z,2.75
2022-08-23T03:17:04.927Z,2.33
2022-08-23T03:18:08.381Z,3.36
2022-08-23T03:19:11.186Z,3.04
2022-08-23T03:20:14.826Z,2.75
2022-08-23T03:21:18.043Z,3.03
2022-08-23T03:22:20.820Z,2.62
2022-08-23T03:23:23.143Z,3.14
2022-08-23T03:24:25.600Z,3.25
2022-08-23T03:25:28.656Z,2.89
2022-08-23T03:26:31.309Z,3.04
2022-08-23T03:27:38.380Z,3.09
2022-08-23T03:28:39.967Z,3.31
2022-08-23T03:29:43.039Z,3.84
2022-08-23T03:30:45.977Z,3.01
2022-08-23T03:31:48.444Z,2.86
2022-08-23T03:32:51.076Z,3.60
2022-08-23T03:33:53.575Z,7.56
2022-08-23T03:34:55.854Z,2.63
2022-08-23T03:36:03.137Z,3.05
2022-08-23T03:37:05.687Z,3.23
2022-08-23T03:38:08.476Z,3.31
2022-08-23T03:39:11.007Z,3.00
2022-08-23T03:40:14.255Z,2.82
2022-08-23T03:41:17.179Z,3.06
2022-08-23T03:42:19.568Z,3.55
2022-08-23T03:43:25.328Z,3.37
2022-08-23T03:44:28.035Z,3.24
2022-08-23T03:45:30.705Z,2.93
2022-08-23T03:46:34.338Z,4.51
2022-08-23T03:47:37.049Z,3.29
2022-08-23T03:48:39.563Z,3.06
2022-08-23T03:49:42.131Z,3.05
2022-08-23T03:50:46.475Z,3.23
2022-08-23T03:51:49.320Z,3.02
2022-08-23T03:52:51.644Z,3.15
2022-08-23T03:53:54.021Z,2.99
2022-08-23T03:54:56.484Z,3.17
2022-08-23T03:55:58.947Z,2.90
2022-08-23T03:57:05.037Z,3.33
2022-08-23T03:58:08.176Z,4.78
2022-08-23T03:59:10.960Z,2.78
2022-08-23T04:00:15.164Z,3.01
2022-08-23T04:02:31.233Z,3.39
2022-08-23T04:03:33.635Z,2.88
2022-08-23T04:04:36.135Z,3.04
2022-08-23T04:05:38.423Z,3.12
2022-08-23T04:06:42.872Z,3.01
2022-08-23T04:07:45.230Z,2.99
2022-08-23T04:08:52.161Z,3.08
2022-08-23T04:09:55.396Z,3.02
2022-08-23T04:11:00.134Z,3.08
2022-08-23T04:12:03.419Z,2.80
2022-08-23T04:13:08.349Z,3.19
2022-08-23T04:14:11.046Z,3.36
2022-08-23T04:15:13.129Z,3.77
2022-08-23T04:16:15.598Z,3.97
2022-08-23T04:17:17.783Z,3.31
2022-08-23T04:18:20.203Z,2.85
2022-08-23T04:19:23.858Z,3.14
2022-08-23T04:20:27.739Z,3.59
2022-08-23T04:21:31.129Z,3.19
2022-08-23T04:22:34.569Z,3.49
2022-08-23T04:23:38.590Z,2.81
2022-08-23T04:24:42.229Z,3.78
2022-08-23T04:25:44.499Z,2.96
2022-08-23T04:26:47.506Z,3.27
2022-08-23T04:27:51.443Z,3.02
2022-08-23T04:28:54.971Z,3.34
2022-08-23T04:29:57.642Z,3.00
2022-08-23T04:31:01.182Z,3.28
2022-08-23T04:32:07.829Z,3.21
2022-08-23T04:33:09.984Z,2.78
2022-08-23T04:34:13.943Z,3.38
2022-08-23T04:35:18.534Z,3.25
2022-08-23T04:36:23.374Z,3.03
2022-08-23T04:37:25.953Z,3.24
2022-08-23T04:38:29.404Z,3.29
2022-08-23T04:39:32.264Z,2.97
2022-08-23T04:40:37.091Z,3.72
2022-08-23T04:41:39.522Z,2.62
2022-08-23T04:42:42.029Z,3.70
2022-08-23T04:43:44.236Z,3.09
2022-08-23T04:44:47.012Z,3.31
2022-08-23T04:45:49.200Z,3.86
2022-08-23T04:46:52.446Z,3.00
2022-08-23T04:47:55.718Z,3.49
2022-08-23T04:48:58.648Z,3.30
2022-08-23T04:50:01.739Z,3.59
2022-08-23T04:51:04.172Z,3.29
2022-08-23T04:52:06.644Z,3.51
2022-08-23T04:53:09.290Z,3.11
2022-08-23T04:54:11.900Z,3.53
2022-08-23T04:55:16.396Z,3.21
2022-08-23T04:56:20.597Z,3.07
2022-08-23T04:57:22.662Z,3.35
2022-08-23T04:58:24.813Z,4.04
2022-08-23T04:59:27.203Z,3.27
2022-08-23T05:00:30.143Z,4.13
2022-08-23T05:01:33.287Z,3.25
2022-08-23T05:02:37.674Z,3.78
2022-08-23T05:03:40.162Z,3.30
2022-08-23T05:04:42.475Z,3.74
2022-08-23T05:05:44.938Z,4.05
2022-08-23T05:06:47.797Z,3.39
2022-08-23T05:07:50.189Z,3.11
2022-08-23T05:08:54.241Z,3.60
2022-08-23T05:09:56.826Z,3.48
2022-08-23T05:11:05.836Z,4.09
2022-08-23T05:12:08.253Z,3.51
2022-08-23T05:13:10.766Z,3.63
2022-08-23T05:14:13.094Z,3.45
2022-08-23T05:15:16.140Z,3.80
2022-08-23T05:16:18.789Z,3.37
2022-08-23T05:17:21.312Z,3.47
2022-08-23T05:18:25.329Z,3.72
2022-08-23T05:19:28.433Z,3.58
2022-08-23T05:20:30.897Z,3.22
2022-08-23T05:21:33.499Z,4.19
2022-08-23T05:22:38.585Z,4.18
2022-08-23T05:23:41.072Z,3.69
2022-08-23T05:24:44.513Z,4.71
2022-08-23T05:25:46.945Z,4.03
2022-08-23T05:26:49.307Z,3.18
2022-08-23T05:27:56.510Z,4.01
2022-08-23T05:28:58.797Z,4.26
2022-08-23T05:30:01.172Z,4.27
2022-08-23T05:31:06.982Z,4.10
2022-08-23T05:32:11.340Z,4.74
2022-08-23T05:33:14.369Z,3.83
2022-08-23T05:34:22.400Z,4.21
2022-08-23T05:35:23.519Z,4.37
2022-08-23T05:36:25.989Z,4.79
2022-08-23T05:37:28.278Z,4.34
2022-08-23T05:38:31.488Z,3.63
2022-08-23T05:39:36.287Z,4.74
2022-08-23T05:40:38.493Z,4.06
2022-08-23T05:41:41.668Z,4.15
2022-08-23T05:42:44.258Z,4.53
2022-08-23T05:43:46.742Z,3.92
2022-08-23T05:44:49.084Z,4.11
2022-08-23T05:46:11.219Z,4.02
2022-08-23T05:47:15.507Z,4.58
2022-08-23T05:48:18.408Z,4.61
2022-08-23T05:49:21.340Z,4.53
2022-08-23T05:50:25.856Z,4.57
2022-08-23T05:51:30.905Z,6.04
2022-08-23T05:52:33.038Z,4.25
2022-08-23T05:53:36.763Z,4.13
2022-08-23T05:54:39.656Z,4.36
2022-08-23T05:55:42.485Z,3.95
2022-08-23T05:56:45.275Z,4.98
2022-08-23T05:57:49.647Z,3.72
2022-08-23T05:58:59.102Z,4.79
2022-08-23T05:59:58.899Z,5.12
2022-08-23T06:01:01.484Z,5.20
2022-08-23T06:02:06.487Z,5.28
2022-08-23T06:03:09.261Z,4.60
2022-08-23T06:04:12.520Z,4.65
2022-08-23T06:05:15.997Z,4.41
2022-08-23T06:06:20.750Z,4.56
2022-08-23T06:07:24.959Z,4.24
2022-08-23T06:08:27.704Z,4.46
2022-08-23T06:09:29.966Z,4.49
2022-08-23T06:10:39.262Z,4.25
2022-08-23T06:11:40.358Z,5.31
2022-08-23T06:12:43.119Z,5.61
2022-08-23T06:13:48.824Z,4.49
2022-08-23T06:14:51.449Z,4.83
2022-08-23T06:15:56.979Z,5.41
2022-08-23T06:16:59.628Z,5.68
2022-08-23T06:18:02.280Z,5.73
2022-08-23T06:19:07.290Z,6.31
2022-08-23T06:20:10.576Z,4.88
2022-08-23T06:21:14.675Z,5.03
2022-08-23T06:22:17.681Z,3.78
2022-08-23T06:23:19.821Z,3.76
2022-08-23T06:24:23.153Z,5.49
2022-08-23T06:25:25.802Z,5.18
2022-08-23T06:26:31.571Z,5.47
2022-08-23T06:27:33.815Z,4.69
2022-08-23T06:28:36.290Z,5.43
2022-08-23T06:29:40.565Z,5.22
2022-08-23T06:30:43.193Z,5.69
2022-08-23T06:31:48.401Z,4.65
2022-08-23T06:32:50.771Z,6.77
2022-08-23T06:33:54.515Z,5.75
2022-08-23T06:35:24.378Z,3.84
2022-08-23T06:37:18.091Z,4.31
2022-08-23T06:38:20.362Z,4.96
2022-08-23T06:39:24.916Z,4.98
2022-08-23T06:40:28.275Z,5.26
2022-08-23T06:41:30.817Z,4.68
2022-08-23T06:42:40.722Z,3.96
2022-08-23T06:43:39.743Z,5.25
2022-08-23T06:44:42.239Z,5.09
2022-08-23T06:45:44.658Z,5.04
2022-08-23T06:46:49.990Z,4.58
2022-08-23T06:47:52.757Z,5.16
2022-08-23T06:48:55.697Z,5.28
2022-08-23T06:49:58.858Z,5.11
2022-08-23T06:51:01.611Z,4.84
2022-08-23T06:52:04.224Z,4.83
2022-08-23T06:53:07.256Z,5.81
2022-08-23T06:54:13.698Z,5.96
2022-08-23T06:55:16.357Z,5.08
2022-08-23T06:56:19.157Z,5.54
2022-08-23T06:57:21.731Z,4.67
2022-08-23T06:58:24.108Z,5.31
2022-08-23T06:59:27.313Z,4.92
2022-08-23T07:00:33.065Z,5.79
2022-08-23T07:01:46.929Z,4.78
2022-08-23T07:02:50.397Z,5.99
2022-08-23T07:03:55.921Z,5.15
2022-08-23T07:04:58.702Z,6.07
2022-08-23T07:06:00.903Z,6.33
2022-08-23T07:07:08.280Z,7.11
2022-08-23T07:08:09.678Z,6.49
2022-08-23T07:09:12.688Z,5.94
2022-08-23T07:10:18.858Z,5.75
2022-08-23T07:11:26.321Z,5.42
2022-08-23T07:12:28.560Z,6.59
2022-08-23T07:13:30.898Z,6.37
2022-08-23T07:14:33.789Z,4.94
2022-08-23T07:15:35.874Z,5.35
2022-08-23T07:16:44.655Z,6.55
2022-08-23T07:17:47.260Z,5.65
2022-08-23T07:18:49.654Z,6.50
2022-08-23T07:19:51.921Z,6.07
2022-08-23T07:21:02.619Z,6.34
2022-08-23T07:22:05.877Z,5.34
2022-08-23T07:23:10.080Z,5.78
2022-08-23T07:24:13.247Z,5.47
2022-08-23T07:25:17.232Z,5.80
2022-08-23T07:26:23.166Z,8.03
2022-08-23T07:27:25.857Z,5.91
2022-08-23T07:28:28.945Z,5.33
2022-08-23T07:29:32.686Z,7.35
2022-08-23T07:30:36.856Z,5.18
2022-08-23T07:31:43.078Z,6.11
2022-08-23T07:32:45.460Z,6.47
2022-08-23T07:33:48.708Z,7.16
2022-08-23T07:34:51.648Z,7.53
2022-08-23T07:35:53.865Z,5.81
2022-08-23T07:36:56.462Z,5.59
2022-08-23T07:38:01.037Z,6.86
2022-08-23T07:39:07.690Z,5.86
2022-08-23T07:40:11.137Z,6.34
2022-08-23T07:41:17.203Z,5.71
2022-08-23T07:42:23.060Z,5.25
2022-08-23T07:43:24.106Z,5.72
2022-08-23T07:44:27.495Z,6.07
2022-08-23T07:45:31.256Z,5.39
2022-08-23T07:46:46.265Z,6.11
2022-08-23T07:47:50.641Z,5.72
2022-08-23T07:48:54.659Z,6.35
2022-08-23T07:49:57.308Z,5.59
2022-08-23T07:51:05.486Z,6.76
2022-08-23T07:52:12.152Z,6.37
2022-08-23T07:53:17.076Z,5.49
2022-08-23T07:54:21.729Z,5.83
2022-08-23T07:55:25.845Z,6.99
2022-08-23T07:56:28.709Z,5.46
2022-08-23T07:57:30.925Z,6.68
2022-08-23T07:58:33.085Z,5.37
2022-08-23T08:00:46.984Z,4.81
2022-08-23T08:01:49.798Z,6.11
2022-08-23T08:02:52.432Z,6.34
2022-08-23T08:04:00.099Z,5.19
2022-08-23T08:05:02.678Z,5.69
2022-08-23T08:06:13.621Z,6.29
2022-08-23T08:07:24.249Z,5.22
2022-08-23T08:08:29.615Z,6.16
2022-08-23T08:09:32.016Z,5.25
2022-08-23T08:10:40.542Z,6.19
2022-08-23T08:11:45.055Z,5.24
2022-08-23T08:12:47.502Z,6.46
2022-08-23T08:13:52.604Z,5.86
2022-08-23T08:15:01.262Z,5.26
2022-08-23T08:16:07.005Z,5.39
2022-08-23T08:17:11.142Z,5.90
2022-08-23T08:18:13.541Z,6.46
2022-08-23T08:19:16.799Z,5.56
2022-08-23T08:20:23.377Z,5.89
2022-08-23T08:21:28.184Z,5.50
2022-08-23T08:22:32.901Z,6.43
2022-08-23T08:23:35.478Z,5.18
2022-08-23T08:24:40.490Z,5.17
2022-08-23T08:25:42.978Z,5.21
2022-08-23T08:26:47.611Z,6.75
2022-08-23T08:27:52.289Z,5.18
2022-08-23T08:28:57.468Z,4.95
2022-08-23T08:30:00.203Z,5.05
2022-08-23T08:31:04.391Z,4.42
2022-08-23T08:32:07.408Z,6.08
2022-08-23T08:33:34.477Z,6.83
2022-08-23T08:34:39.685Z,5.62
2022-08-23T08:35:42.713Z,5.57
2022-08-23T08:36:52.453Z,5.89
2022-08-23T08:37:57.162Z,5.79
2022-08-23T08:39:00.747Z,5.27
2022-08-23T08:40:04.263Z,5.56
2022-08-23T08:41:19.407Z,4.36
2022-08-23T08:42:28.456Z,4.81
2022-08-23T08:44:07.820Z,6.47
2022-08-23T08:45:14.026Z,4.58
2022-08-23T08:46:25.996Z,5.99
2022-08-23T08:47:33.558Z,5.11
2022-08-23T08:48:42.501Z,4.85
2022-08-23T08:51:03.620Z,4.78
2022-08-23T08:52:18.682Z,5.97
2022-08-23T08:53:39.084Z,6.53
2022-08-23T08:54:47.963Z,4.49
2022-08-23T08:55:53.054Z,6.87
2022-08-23T08:56:59.058Z,5.65
2022-08-23T08:58:12.096Z,3.94
2022-08-23T08:59:26.832Z,6.02
2022-08-23T09:00:39.731Z,4.23
2022-08-23T09:01:45.375Z,3.48
2022-08-23T09:02:48.791Z,3.98
2022-08-23T09:03:57.508Z,3.85
2022-08-23T09:05:12.391Z,4.55
2022-08-23T09:06:20.051Z,4.88
2022-08-23T09:07:46.907Z,3.38
2022-08-23T09:09:09.738Z,3.96
2022-08-23T09:10:22.261Z,4.05
2022-08-23T09:11:36.386Z,4.09
2022-08-23T09:13:03.847Z,3.61
2022-08-23T09:14:27.898Z,3.69
2022-08-23T09:17:05.608Z,2.71
2022-08-23T09:18:14.719Z,3.24
2022-08-23T09:19:17.954Z,2.44
2022-08-23T09:20:27.257Z,2.64
2022-08-23T09:21:34.212Z,3.04
2022-08-23T09:22:45.850Z,2.89
2022-08-23T09:24:00.404Z,3.49
2022-08-23T09:24:57.903Z,2.48
2022-08-23T09:26:04.110Z,2.14
2022-08-23T09:27:09.758Z,2.82
2022-08-23T09:28:15.321Z,2.39
2022-08-23T09:29:21.191Z,2.29
2022-08-23T09:30:28.115Z,2.14
2022-08-23T09:31:42.249Z,2.43
2022-08-23T09:32:47.180Z,2.24
2022-08-23T09:33:49.894Z,2.86
2022-08-23T09:34:54.354Z,2.30
2022-08-23T09:36:26.950Z,2.79
2022-08-23T09:37:29.378Z,2.76
2022-08-23T09:38:32.889Z,2.33
2022-08-23T09:39:38.563Z,2.34
2022-08-23T09:40:48.037Z,3.53
2022-08-23T09:41:50.553Z,2.49
2022-08-23T09:43:02.379Z,2.72
2022-08-23T09:44:12.462Z,3.51
2022-08-23T09:45:35.143Z,2.34
2022-08-23T09:46:36.213Z,2.14
2022-08-23T09:47:44.193Z,2.26
2022-08-23T09:48:44.930Z,2.25
2022-08-23T09:49:47.851Z,2.43
2022-08-23T09:50:52.950Z,2.63
2022-08-23T09:52:01.410Z,1.86
2022-08-23T09:53:11.087Z,2.47
2022-08-23T09:54:23.137Z,2.18
2022-08-23T09:55:29.000Z,2.41
2022-08-23T09:56:35.969Z,2.46
2022-08-23T09:57:38.486Z,2.30
2022-08-23T09:58:44.377Z,2.48
2022-08-23T09:59:48.449Z,2.03
2022-08-23T10:02:07.071Z,3.18
2022-08-23T10:03:29.006Z,2.31
2022-08-23T10:04:41.081Z,2.53
2022-08-23T10:05:47.316Z,2.16
2022-08-23T10:06:50.823Z,2.32
2022-08-23T10:07:59.678Z,2.42
2022-08-23T10:09:03.600Z,2.43
2022-08-23T10:10:19.130Z,2.46
2022-08-23T10:11:25.093Z,2.88
2022-08-23T10:12:29.104Z,2.44
2022-08-23T10:13:31.610Z,2.31
2022-08-23T10:14:35.176Z,1.88
2022-08-23T10:16:10.557Z,2.51
2022-08-23T10:17:25.979Z,2.26
2022-08-23T10:18:49.123Z,3.01
2022-08-23T10:20:13.599Z,2.47
2022-08-23T10:21:34.937Z,2.22
2022-08-23T10:22:42.110Z,1.93
2022-08-23T10:24:12.734Z,1.65
2022-08-23T10:25:30.944Z,2.14
2022-08-23T10:26:35.384Z,2.46
2022-08-23T10:27:53.095Z,2.28
2022-08-23T10:29:17.582Z,2.08
2022-08-23T10:30:24.239Z,2.83
2022-08-23T10:31:36.240Z,2.09
2022-08-23T10:32:51.374Z,2.12
2022-08-23T10:34:06.525Z,3.18
2022-08-23T10:35:24.544Z,2.84
2022-08-23T10:36:46.457Z,3.21
2022-08-23T10:37:54.472Z,2.06
2022-08-23T10:39:06.575Z,1.89
2022-08-23T10:40:27.047Z,2.14
2022-08-23T10:41:39.106Z,1.89
2022-08-23T10:43:03.732Z,1.78
2022-08-23T10:44:12.875Z,1.73
2022-08-23T10:46:34.826Z,1.96
2022-08-23T10:47:43.977Z,2.62
2022-08-23T10:48:51.977Z,2.06
2022-08-23T10:49:58.956Z,1.48
2022-08-23T10:51:14.612Z,2.15
2022-08-23T10:52:43.428Z,1.97
2022-08-23T10:53:55.062Z,1.91
2022-08-23T10:55:03.703Z,1.89
2022-08-23T10:56:10.144Z,1.34
2022-08-23T10:57:18.277Z,1.74
2022-08-23T10:59:35.959Z,1.67
2022-08-23T11:00:40.006Z,1.98
2022-08-23T11:02:05.862Z,1.86
2022-08-23T11:03:28.276Z,2.02
2022-08-23T11:04:53.878Z,2.14
2022-08-23T11:06:24.561Z,2.06
2022-08-23T11:07:32.881Z,2.53
2022-08-23T11:08:37.924Z,1.86
2022-08-23T11:10:07.035Z,1.58
2022-08-23T11:11:34.657Z,1.91
2022-08-23T11:12:52.599Z,1.33
2022-08-23T11:13:55.622Z,1.53
2022-08-23T11:15:10.957Z,1.42
2022-08-23T11:16:16.949Z,2.46
2022-08-23T11:17:44.416Z,1.93
2022-08-23T11:18:48.752Z,1.57
2022-08-23T11:20:00.472Z,1.39
2022-08-23T11:21:18.422Z,2.21
2022-08-23T11:22:27.273Z,1.54
2022-08-23T11:24:52.674Z,1.71
2022-08-23T11:25:55.101Z,1.91
2022-08-23T11:27:05.373Z,1.75
2022-08-23T11:28:30.388Z,1.64
2022-08-23T11:29:32.162Z,3.12
2022-08-23T11:30:40.923Z,2.08
2022-08-23T11:31:50.075Z,1.56
2022-08-23T11:32:53.325Z,1.99
2022-08-23T11:34:08.100Z,1.98
2022-08-23T11:35:43.129Z,1.51
2022-08-23T11:38:04.170Z,1.73
2022-08-23T11:39:19.600Z,1.47
2022-08-23T11:40:51.107Z,1.72
2022-08-23T11:41:57.150Z,1.51
2022-08-23T11:43:03.334Z,1.58
2022-08-23T11:44:14.456Z,1.50
2022-08-23T11:46:30.787Z,1.66
2022-08-23T11:47:41.534Z,1.57
2022-08-23T11:48:47.318Z,1.37
2022-08-23T11:51:30.860Z,3.58
2022-08-23T11:52:57.175Z,1.58
2022-08-23T11:54:18.482Z,1.71
2022-08-23T11:56:46.065Z,1.74
2022-08-23T11:57:48.991Z,2.06
2022-08-23T11:58:57.555Z,1.52
2022-08-23T12:00:09.719Z,1.73
2022-08-23T12:01:14.264Z,1.56
2022-08-23T12:02:48.720Z,1.74
2022-08-23T12:03:55.174Z,1.59
2022-08-23T12:05:00.972Z,2.78
2022-08-23T12:06:06.922Z,1.81
2022-08-23T12:07:11.111Z,2.23
2022-08-23T12:08:40.247Z,1.76
2022-08-23T12:09:49.166Z,2.43
2022-08-23T12:10:56.278Z,1.86
2022-08-23T12:12:02.150Z,1.46
2022-08-23T12:13:23.443Z,1.89
2022-08-23T12:14:36.936Z,3.39
2022-08-23T12:16:04.715Z,1.44
2022-08-23T12:17:16.940Z,1.68
2022-08-23T12:18:24.126Z,1.75
2022-08-23T12:19:44.218Z,1.48
2022-08-23T12:21:53.776Z,1.89
2022-08-23T12:23:03.160Z,1.75
2022-08-23T12:24:30.836Z,1.56
2022-08-23T12:25:33.769Z,1.45
2022-08-23T12:26:48.958Z,2.01
2022-08-23T12:28:00.731Z,2.50
2022-08-23T12:29:22.171Z,1.96
2022-08-23T12:30:41.093Z,1.34
2022-08-23T12:31:48.236Z,1.59
2022-08-23T12:33:00.187Z,2.25
2022-08-23T12:34:18.364Z,1.94
2022-08-23T12:35:41.327Z,2.30
2022-08-23T12:36:47.526Z,2.39
2022-08-23T12:38:11.723Z,1.67
2022-08-23T12:39:23.874Z,1.76
2022-08-23T12:40:42.741Z,1.44
2022-08-23T12:41:55.226Z,2.83
2022-08-23T12:43:07.345Z,2.32
2022-08-23T12:44:09.850Z,1.69
2022-08-23T12:45:15.638Z,2.24
2022-08-23T12:46:31.501Z,2.25
2022-08-23T12:47:38.470Z,1.67
2022-08-23T12:48:42.880Z,2.18
2022-08-23T12:50:00.910Z,2.78
2022-08-23T12:51:09.854Z,1.47
2022-08-23T12:52:12.549Z,2.19
2022-08-23T12:53:18.326Z,1.91
2022-08-23T12:54:23.948Z,2.59
2022-08-23T12:55:29.978Z,1.77
2022-08-23T12:56:35.165Z,1.71
2022-08-23T12:57:41.074Z,1.82
2022-08-23T12:58:47.175Z,2.51
2022-08-23T13:00:16.398Z,1.96
2022-08-23T13:01:06.237Z,2.01
2022-08-23T13:02:12.249Z,1.61
2022-08-23T13:03:22.914Z,1.92
2022-08-23T13:04:25.349Z,2.17
2022-08-23T13:05:31.265Z,3.39
2022-08-23T13:06:42.278Z,1.80
2022-08-23T13:07:45.636Z,1.51
2022-08-23T13:08:54.291Z,2.62
2022-08-23T13:09:58.479Z,1.50
2022-08-23T13:11:07.795Z,1.69
2022-08-23T13:12:10.006Z,2.18
2022-08-23T13:13:15.599Z,1.54
2022-08-23T13:14:33.380Z,1.69
2022-08-23T13:15:47.832Z,1.44
2022-08-23T13:16:51.039Z,2.02
2022-08-23T13:17:59.985Z,1.54
2022-08-23T13:19:18.060Z,1.66
2022-08-23T13:21:39.937Z,1.82
2022-08-23T13:23:04.601Z,1.86
2022-08-23T13:24:31.414Z,2.10
2022-08-23T13:25:35.422Z,1.92
2022-08-23T13:26:42.680Z,1.80
2022-08-23T13:27:48.929Z,1.95
2022-08-23T13:29:09.981Z,3.97
2022-08-23T13:30:17.719Z,1.72
2022-08-23T13:31:20.476Z,1.61
2022-08-23T13:32:35.588Z,1.86
2022-08-23T13:33:40.913Z,1.70
2022-08-23T13:34:48.618Z,2.01
2022-08-23T13:35:52.694Z,1.92
2022-08-23T13:37:03.364Z,1.11
2022-08-23T13:38:22.089Z,2.81
2022-08-23T13:39:25.365Z,1.73
2022-08-23T13:40:33.384Z,2.01
2022-08-23T13:41:38.755Z,1.98
2022-08-23T13:42:47.650Z,1.84
2022-08-23T13:43:52.397Z,2.01
2022-08-23T13:44:54.922Z,1.56
2022-08-23T13:46:00.268Z,1.94
2022-08-23T13:47:04.915Z,2.07
2022-08-23T13:48:11.289Z,1.88
2022-08-23T13:50:35.289Z,2.07
2022-08-23T13:51:40.608Z,1.77
2022-08-23T13:53:10.089Z,1.72
2022-08-23T13:53:48.577Z,2.17
2022-08-23T13:54:52.973Z,2.11
2022-08-23T13:55:55.979Z,2.08
2022-08-23T13:57:05.009Z,2.41
2022-08-23T13:58:13.841Z,1.71
2022-08-23T13:59:32.217Z,2.93
2022-08-23T14:00:35.624Z,2.58
2022-08-23T14:01:38.792Z,2.06
2022-08-23T14:02:41.507Z,1.88
2022-08-23T14:03:43.892Z,1.97
2022-08-23T14:04:47.055Z,1.92
2022-08-23T14:05:49.424Z,2.25
2022-08-23T14:06:51.888Z,1.84
2022-08-23T14:07:54.116Z,2.45
2022-08-23T14:08:56.464Z,2.02
2022-08-23T14:09:59.510Z,2.53
2022-08-23T14:11:02.688Z,2.13
2022-08-23T14:12:09.636Z,2.75
2022-08-23T14:13:14.920Z,2.24
2022-08-23T14:14:17.255Z,1.93
2022-08-23T14:15:20.023Z,2.51
2022-08-23T14:16:33.449Z,1.76
2022-08-23T14:17:39.270Z,2.03
2022-08-23T14:19:16.560Z,1.97
2022-08-23T14:20:52.049Z,2.03
2022-08-23T14:21:54.407Z,2.26
2022-08-23T14:22:56.889Z,2.31
2022-08-23T14:23:59.076Z,2.23
2022-08-23T14:25:02.614Z,1.89
2022-08-23T14:26:05.587Z,2.14
2022-08-23T14:27:08.415Z,2.02
2022-08-23T14:28:10.827Z,1.83
2022-08-23T14:29:15.350Z,2.16
2022-08-23T14:30:30.243Z,2.04
2022-08-23T14:31:32.653Z,1.99
2022-08-23T14:32:35.030Z,2.63
2022-08-23T14:33:38.019Z,2.18
2022-08-23T14:34:40.369Z,1.95
2022-08-23T14:35:43.001Z,2.43
2022-08-23T14:38:07.319Z,2.28
2022-08-23T14:38:56.140Z,2.09
2022-08-23T14:39:58.493Z,1.89
2022-08-23T14:41:04.167Z,1.94
2022-08-23T14:42:06.819Z,2.82
2022-08-23T14:43:11.243Z,2.54
2022-08-23T14:44:14.158Z,2.69
2022-08-23T14:45:17.608Z,2.71
2022-08-23T14:46:21.852Z,2.32
2022-08-23T14:47:24.643Z,2.43
2022-08-23T14:48:28.459Z,2.90
2022-08-23T14:49:31.256Z,2.47
2022-08-23T14:50:33.966Z,2.68
2022-08-23T14:51:43.330Z,2.14
2022-08-23T14:52:46.352Z,2.21
2022-08-23T14:53:48.993Z,1.83
2022-08-23T14:54:51.343Z,3.01
2022-08-23T14:56:18.673Z,2.69
2022-08-23T14:56:59.713Z,2.43
2022-08-23T14:58:02.789Z,2.30
2022-08-23T14:59:05.325Z,2.31
2022-08-23T15:00:09.443Z,2.50
2022-08-23T15:01:12.501Z,2.24
2022-08-23T15:02:19.350Z,1.87
2022-08-23T15:03:26.372Z,2.21
2022-08-23T15:04:34.176Z,2.82
2022-08-23T15:05:33.213Z,2.92
2022-08-23T15:06:36.180Z,2.42
2022-08-23T15:07:38.868Z,2.47